sensor_id;sensor_type;location;lat;lon;timestamp;temperature;humidity
72355;SHT30;60314;55.040;73.076;2022-09-09T00:02:27;6.28;80.12
72355;SHT30;60314;55.040;73.076;2022-09-09T00:05:08;6.24;80.33
72355;SHT30;60314;55.040;73.076;2022-09-09T00:07:52;6.19;79.96
72355;SHT30;60314;55.040;73.076;2022-09-09T00:10:36;6.19;79.55
72355;SHT30;60314;55.040;73.076;2022-09-09T00:18:37;6.05;78.63
72355;SHT30;60314;55.040;73.076;2022-09-09T00:21:10;5.98;78.31
72355;SHT30;60314;55.040;73.076;2022-09-09T00:23:45;5.91;78.80
72355;SHT30;60314;55.040;73.076;2022-09-09T00:29:27;5.73;78.71
72355;SHT30;60314;55.040;73.076;2022-09-09T00:32:11;5.73;79.13
72355;SHT30;60314;55.040;73.076;2022-09-09T00:34:55;5.68;79.00
72355;SHT30;60314;55.040;73.076;2022-09-09T00:37:24;5.77;78.72
72355;SHT30;60314;55.040;73.076;2022-09-09T00:39:54;5.75;78.61
72355;SHT30;60314;55.040;73.076;2022-09-09T00:47:46;5.47;78.44
72355;SHT30;60314;55.040;73.076;2022-09-09T00:56:14;5.61;78.51
72355;SHT30;60314;55.040;73.076;2022-09-09T00:59:16;5.63;78.52
72355;SHT30;60314;55.040;73.076;2022-09-09T01:01:38;5.68;78.44
72355;SHT30;60314;55.040;73.076;2022-09-09T01:04:12;5.75;78.98
72355;SHT30;60314;55.040;73.076;2022-09-09T01:06:43;5.84;78.45
72355;SHT30;60314;55.040;73.076;2022-09-09T01:12:16;5.94;79.44
72355;SHT30;60314;55.040;73.076;2022-09-09T01:15:07;6.12;79.84
72355;SHT30;60314;55.040;73.076;2022-09-09T01:17:50;6.29;79.59
72355;SHT30;60314;55.040;73.076;2022-09-09T01:20:39;6.49;80.69
72355;SHT30;60314;55.040;73.076;2022-09-09T01:26:34;6.81;81.36
72355;SHT30;60314;55.040;73.076;2022-09-09T01:29:17;7.00;81.09
72355;SHT30;60314;55.040;73.076;2022-09-09T01:32:46;7.18;80.52
72355;SHT30;60314;55.040;73.076;2022-09-09T01:35:08;7.41;80.34
72355;SHT30;60314;55.040;73.076;2022-09-09T01:37:36;7.58;80.05
72355;SHT30;60314;55.040;73.076;2022-09-09T01:40:03;7.72;79.71
72355;SHT30;60314;55.040;73.076;2022-09-09T01:42:31;7.89;79.12
72355;SHT30;60314;55.040;73.076;2022-09-09T01:44:58;8.03;78.76
72355;SHT30;60314;55.040;73.076;2022-09-09T01:47:25;8.17;78.34
72355;SHT30;60314;55.040;73.076;2022-09-09T01:50:21;8.36;77.84
72355;SHT30;60314;55.040;73.076;2022-09-09T01:52:54;8.48;77.39
72355;SHT30;60314;55.040;73.076;2022-09-09T01:55:39;8.64;76.70
72355;SHT30;60314;55.040;73.076;2022-09-09T02:07:38;9.42;74.74
72355;SHT30;60314;55.040;73.076;2022-09-09T02:10:50;9.65;74.31
72355;SHT30;60314;55.040;73.076;2022-09-09T02:13:37;9.71;73.72
72355;SHT30;60314;55.040;73.076;2022-09-09T02:16:07;9.84;73.33
72355;SHT30;60314;55.040;73.076;2022-09-09T02:21:40;10.06;72.24
72355;SHT30;60314;55.040;73.076;2022-09-09T02:24:12;10.32;72.17
72355;SHT30;60314;55.040;73.076;2022-09-09T02:26:51;10.59;71.28
72355;SHT30;60314;55.040;73.076;2022-09-09T02:29:35;10.84;71.38
72355;SHT30;60314;55.040;73.076;2022-09-09T02:32:09;11.01;69.74
72355;SHT30;60314;55.040;73.076;2022-09-09T02:34:43;11.13;69.77
72355;SHT30;60314;55.040;73.076;2022-09-09T02:37:19;11.28;68.60
72355;SHT30;60314;55.040;73.076;2022-09-09T02:39:50;11.42;68.02
72355;SHT30;60314;55.040;73.076;2022-09-09T02:42:32;11.50;68.62
72355;SHT30;60314;55.040;73.076;2022-09-09T02:45:00;11.65;67.68
72355;SHT30;60314;55.040;73.076;2022-09-09T02:47:37;11.75;67.32
72355;SHT30;60314;55.040;73.076;2022-09-09T02:50:20;11.85;67.53
72355;SHT30;60314;55.040;73.076;2022-09-09T02:55:39;12.13;65.36
72355;SHT30;60314;55.040;73.076;2022-09-09T02:58:11;12.22;65.26
72355;SHT30;60314;55.040;73.076;2022-09-09T03:00:41;12.39;64.55
72355;SHT30;60314;55.040;73.076;2022-09-09T03:03:08;12.49;64.31
72355;SHT30;60314;55.040;73.076;2022-09-09T03:05:38;12.67;64.33
72355;SHT30;60314;55.040;73.076;2022-09-09T03:08:15;12.78;62.69
72355;SHT30;60314;55.040;73.076;2022-09-09T03:10:43;12.91;63.12
72355;SHT30;60314;55.040;73.076;2022-09-09T03:13:12;13.05;61.84
72355;SHT30;60314;55.040;73.076;2022-09-09T03:15:42;13.16;62.21
72355;SHT30;60314;55.040;73.076;2022-09-09T03:18:18;13.34;61.54
72355;SHT30;60314;55.040;73.076;2022-09-09T03:21:01;13.45;59.90
72355;SHT30;60314;55.040;73.076;2022-09-09T03:23:28;13.49;58.75
72355;SHT30;60314;55.040;73.076;2022-09-09T03:25:56;13.60;59.17
72355;SHT30;60314;55.040;73.076;2022-09-09T03:28:34;13.77;57.69
72355;SHT30;60314;55.040;73.076;2022-09-09T03:31:12;13.89;57.53
72355;SHT30;60314;55.040;73.076;2022-09-09T03:33:40;13.99;57.53
72355;SHT30;60314;55.040;73.076;2022-09-09T03:36:10;14.07;56.54
72355;SHT30;60314;55.040;73.076;2022-09-09T03:38:37;14.17;57.15
72355;SHT30;60314;55.040;73.076;2022-09-09T03:41:14;14.27;55.89
72355;SHT30;60314;55.040;73.076;2022-09-09T03:43:42;14.37;55.42
72355;SHT30;60314;55.040;73.076;2022-09-09T03:46:22;14.41;54.52
72355;SHT30;60314;55.040;73.076;2022-09-09T03:48:54;14.54;54.10
72355;SHT30;60314;55.040;73.076;2022-09-09T03:51:21;14.64;53.87
72355;SHT30;60314;55.040;73.076;2022-09-09T03:53:48;14.79;53.43
72355;SHT30;60314;55.040;73.076;2022-09-09T03:56:15;14.88;54.24
72355;SHT30;60314;55.040;73.076;2022-09-09T03:58:42;15.00;53.77
72355;SHT30;60314;55.040;73.076;2022-09-09T04:01:14;15.02;52.38
72355;SHT30;60314;55.040;73.076;2022-09-09T04:03:42;14.99;52.56
72355;SHT30;60314;55.040;73.076;2022-09-09T04:06:10;15.04;52.47
72355;SHT30;60314;55.040;73.076;2022-09-09T04:08:37;15.18;52.72
72355;SHT30;60314;55.040;73.076;2022-09-09T04:11:05;15.27;52.08
72355;SHT30;60314;55.040;73.076;2022-09-09T04:13:38;15.33;51.98
72355;SHT30;60314;55.040;73.076;2022-09-09T04:16:08;15.50;52.02
72355;SHT30;60314;55.040;73.076;2022-09-09T04:18:47;15.61;51.45
72355;SHT30;60314;55.040;73.076;2022-09-09T04:21:27;15.85;52.13
72355;SHT30;60314;55.040;73.076;2022-09-09T04:23:54;16.06;49.29
72355;SHT30;60314;55.040;73.076;2022-09-09T04:26:21;16.12;48.03
72355;SHT30;60314;55.040;73.076;2022-09-09T04:28:48;16.21;48.16
72355;SHT30;60314;55.040;73.076;2022-09-09T04:31:20;16.33;48.09
72355;SHT30;60314;55.040;73.076;2022-09-09T04:33:53;16.25;46.97
72355;SHT30;60314;55.040;73.076;2022-09-09T04:36:21;16.25;47.40
72355;SHT30;60314;55.040;73.076;2022-09-09T04:38:50;16.29;48.04
72355;SHT30;60314;55.040;73.076;2022-09-09T04:41:17;16.36;47.84
72355;SHT30;60314;55.040;73.076;2022-09-09T04:43:50;16.36;47.25
72355;SHT30;60314;55.040;73.076;2022-09-09T04:46:21;16.29;49.58
72355;SHT30;60314;55.040;73.076;2022-09-09T04:48:49;16.23;46.69
72355;SHT30;60314;55.040;73.076;2022-09-09T04:51:26;16.15;47.90
72355;SHT30;60314;55.040;73.076;2022-09-09T04:53:52;16.06;48.84
72355;SHT30;60314;55.040;73.076;2022-09-09T04:56:20;15.90;47.70
72355;SHT30;60314;55.040;73.076;2022-09-09T04:58:56;15.75;49.07
72355;SHT30;60314;55.040;73.076;2022-09-09T05:01:27;15.63;48.02
72355;SHT30;60314;55.040;73.076;2022-09-09T05:04:00;15.47;47.76
72355;SHT30;60314;55.040;73.076;2022-09-09T05:06:27;15.44;49.17
72355;SHT30;60314;55.040;73.076;2022-09-09T05:09:08;15.43;48.86
72355;SHT30;60314;55.040;73.076;2022-09-09T05:11:35;15.47;48.41
72355;SHT30;60314;55.040;73.076;2022-09-09T05:14:14;15.49;48.05
72355;SHT30;60314;55.040;73.076;2022-09-09T05:16:41;15.49;48.37
72355;SHT30;60314;55.040;73.076;2022-09-09T05:19:18;15.46;48.25
72355;SHT30;60314;55.040;73.076;2022-09-09T05:21:49;15.46;48.72
72355;SHT30;60314;55.040;73.076;2022-09-09T05:24:20;15.43;47.49
72355;SHT30;60314;55.040;73.076;2022-09-09T05:26:51;15.39;46.66
72355;SHT30;60314;55.040;73.076;2022-09-09T05:29:18;15.42;46.92
72355;SHT30;60314;55.040;73.076;2022-09-09T05:31:47;15.42;48.54
72355;SHT30;60314;55.040;73.076;2022-09-09T05:34:17;15.50;48.50
72355;SHT30;60314;55.040;73.076;2022-09-09T05:36:43;15.50;46.92
72355;SHT30;60314;55.040;73.076;2022-09-09T05:39:10;15.33;48.90
72355;SHT30;60314;55.040;73.076;2022-09-09T05:41:38;15.16;48.56
72355;SHT30;60314;55.040;73.076;2022-09-09T05:44:05;14.98;49.61
72355;SHT30;60314;55.040;73.076;2022-09-09T05:46:37;14.86;50.44
72355;SHT30;60314;55.040;73.076;2022-09-09T05:49:04;14.79;53.18
72355;SHT30;60314;55.040;73.076;2022-09-09T05:51:34;14.81;54.93
72355;SHT30;60314;55.040;73.076;2022-09-09T05:54:06;14.79;54.42
72355;SHT30;60314;55.040;73.076;2022-09-09T05:56:36;14.88;55.74
72355;SHT30;60314;55.040;73.076;2022-09-09T05:59:03;15.09;55.30
72355;SHT30;60314;55.040;73.076;2022-09-09T06:01:33;15.39;53.17
72355;SHT30;60314;55.040;73.076;2022-09-09T06:04:01;15.71;53.02
72355;SHT30;60314;55.040;73.076;2022-09-09T06:06:35;16.08;50.99
72355;SHT30;60314;55.040;73.076;2022-09-09T06:09:13;16.35;50.59
72355;SHT30;60314;55.040;73.076;2022-09-09T06:11:42;16.30;49.13
72355;SHT30;60314;55.040;73.076;2022-09-09T06:14:09;16.33;47.30
72355;SHT30;60314;55.040;73.076;2022-09-09T06:16:37;16.42;49.23
72355;SHT30;60314;55.040;73.076;2022-09-09T06:19:14;16.64;50.41
72355;SHT30;60314;55.040;73.076;2022-09-09T06:21:41;16.93;49.71
72355;SHT30;60314;55.040;73.076;2022-09-09T06:24:10;17.18;46.83
72355;SHT30;60314;55.040;73.076;2022-09-09T06:26:40;17.23;46.15
72355;SHT30;60314;55.040;73.076;2022-09-09T06:29:09;17.24;45.51
72355;SHT30;60314;55.040;73.076;2022-09-09T06:31:36;17.15;45.23
72355;SHT30;60314;55.040;73.076;2022-09-09T06:34:18;17.25;45.56
72355;SHT30;60314;55.040;73.076;2022-09-09T06:36:49;17.35;45.53
72355;SHT30;60314;55.040;73.076;2022-09-09T06:39:21;17.32;44.31
72355;SHT30;60314;55.040;73.076;2022-09-09T06:41:47;17.42;45.33
72355;SHT30;60314;55.040;73.076;2022-09-09T06:44:34;17.59;44.83
72355;SHT30;60314;55.040;73.076;2022-09-09T06:47:06;17.72;44.81
72355;SHT30;60314;55.040;73.076;2022-09-09T06:49:33;17.90;44.07
72355;SHT30;60314;55.040;73.076;2022-09-09T06:52:09;18.03;44.73
72355;SHT30;60314;55.040;73.076;2022-09-09T06:54:35;18.17;43.92
72355;SHT30;60314;55.040;73.076;2022-09-09T06:57:04;18.25;42.03
72355;SHT30;60314;55.040;73.076;2022-09-09T06:59:34;18.22;42.68
72355;SHT30;60314;55.040;73.076;2022-09-09T07:02:00;18.22;41.90
72355;SHT30;60314;55.040;73.076;2022-09-09T07:04:28;18.40;41.55
72355;SHT30;60314;55.040;73.076;2022-09-09T07:06:55;18.57;42.30
72355;SHT30;60314;55.040;73.076;2022-09-09T07:09:24;18.53;41.19
72355;SHT30;60314;55.040;73.076;2022-09-09T07:11:56;18.38;40.13
72355;SHT30;60314;55.040;73.076;2022-09-09T07:14:25;18.41;40.81
72355;SHT30;60314;55.040;73.076;2022-09-09T07:17:02;18.43;40.61
72355;SHT30;60314;55.040;73.076;2022-09-09T07:19:34;18.38;38.55
72355;SHT30;60314;55.040;73.076;2022-09-09T07:22:03;18.50;39.59
72355;SHT30;60314;55.040;73.076;2022-09-09T07:24:30;18.79;39.21
72355;SHT30;60314;55.040;73.076;2022-09-09T07:27:08;19.02;39.45
72355;SHT30;60314;55.040;73.076;2022-09-09T07:29:36;19.18;38.14
72355;SHT30;60314;55.040;73.076;2022-09-09T07:32:09;19.23;37.73
72355;SHT30;60314;55.040;73.076;2022-09-09T07:34:40;19.22;37.41
72355;SHT30;60314;55.040;73.076;2022-09-09T07:37:06;19.18;38.41
72355;SHT30;60314;55.040;73.076;2022-09-09T07:39:35;19.09;37.99
72355;SHT30;60314;55.040;73.076;2022-09-09T07:42:02;19.09;35.54
72355;SHT30;60314;55.040;73.076;2022-09-09T07:44:29;19.12;35.77
72355;SHT30;60314;55.040;73.076;2022-09-09T07:47:05;19.14;36.25
72355;SHT30;60314;55.040;73.076;2022-09-09T07:49:36;19.01;35.66
72355;SHT30;60314;55.040;73.076;2022-09-09T07:52:04;18.87;37.16
72355;SHT30;60314;55.040;73.076;2022-09-09T07:54:32;18.78;36.03
72355;SHT30;60314;55.040;73.076;2022-09-09T07:57:00;18.83;36.88
72355;SHT30;60314;55.040;73.076;2022-09-09T07:59:34;18.79;37.75
72355;SHT30;60314;55.040;73.076;2022-09-09T08:02:10;18.83;37.96
72355;SHT30;60314;55.040;73.076;2022-09-09T08:04:41;18.89;35.26
72355;SHT30;60314;55.040;73.076;2022-09-09T08:07:08;18.87;36.76
72355;SHT30;60314;55.040;73.076;2022-09-09T08:09:52;18.92;37.28
72355;SHT30;60314;55.040;73.076;2022-09-09T08:12:25;18.94;36.32
72355;SHT30;60314;55.040;73.076;2022-09-09T08:14:52;18.94;36.49
72355;SHT30;60314;55.040;73.076;2022-09-09T08:17:21;19.02;36.51
72355;SHT30;60314;55.040;73.076;2022-09-09T08:19:48;19.05;35.54
72355;SHT30;60314;55.040;73.076;2022-09-09T08:22:19;18.94;35.72
72355;SHT30;60314;55.040;73.076;2022-09-09T08:24:50;18.88;35.71
72355;SHT30;60314;55.040;73.076;2022-09-09T08:27:17;18.94;35.77
72355;SHT30;60314;55.040;73.076;2022-09-09T08:29:43;18.92;35.92
72355;SHT30;60314;55.040;73.076;2022-09-09T08:32:10;18.98;37.00
72355;SHT30;60314;55.040;73.076;2022-09-09T08:34:38;19.08;36.07
72355;SHT30;60314;55.040;73.076;2022-09-09T08:37:14;19.18;35.01
72355;SHT30;60314;55.040;73.076;2022-09-09T08:39:52;19.19;35.93
72355;SHT30;60314;55.040;73.076;2022-09-09T08:42:44;19.32;35.02
72355;SHT30;60314;55.040;73.076;2022-09-09T08:45:34;19.28;33.80
72355;SHT30;60314;55.040;73.076;2022-09-09T08:48:30;19.32;35.04
72355;SHT30;60314;55.040;73.076;2022-09-09T08:50:59;19.20;33.61
72355;SHT30;60314;55.040;73.076;2022-09-09T08:53:50;19.19;33.55
72355;SHT30;60314;55.040;73.076;2022-09-09T08:56:21;19.22;34.23
72355;SHT30;60314;55.040;73.076;2022-09-09T08:58:54;19.23;33.85
72355;SHT30;60314;55.040;73.076;2022-09-09T09:02:00;19.29;33.71
72355;SHT30;60314;55.040;73.076;2022-09-09T09:07:59;19.18;33.08
72355;SHT30;60314;55.040;73.076;2022-09-09T09:10:49;19.19;32.95
72355;SHT30;60314;55.040;73.076;2022-09-09T09:16:11;19.28;32.14
72355;SHT30;60314;55.040;73.076;2022-09-09T09:18:40;19.18;31.99
72355;SHT30;60314;55.040;73.076;2022-09-09T09:21:16;19.19;33.78
72355;SHT30;60314;55.040;73.076;2022-09-09T09:23:58;19.19;33.97
72355;SHT30;60314;55.040;73.076;2022-09-09T09:26:31;19.25;33.96
72355;SHT30;60314;55.040;73.076;2022-09-09T09:29:03;19.33;35.70
72355;SHT30;60314;55.040;73.076;2022-09-09T09:31:34;19.36;33.85
72355;SHT30;60314;55.040;73.076;2022-09-09T09:34:01;19.35;35.58
72355;SHT30;60314;55.040;73.076;2022-09-09T09:36:54;19.32;33.62
72355;SHT30;60314;55.040;73.076;2022-09-09T09:39:26;19.26;34.19
72355;SHT30;60314;55.040;73.076;2022-09-09T09:41:57;19.22;36.80
72355;SHT30;60314;55.040;73.076;2022-09-09T09:44:30;19.16;38.12
72355;SHT30;60314;55.040;73.076;2022-09-09T09:47:21;19.11;35.42
72355;SHT30;60314;55.040;73.076;2022-09-09T09:50:04;19.11;33.77
72355;SHT30;60314;55.040;73.076;2022-09-09T09:52:36;19.11;35.23
72355;SHT30;60314;55.040;73.076;2022-09-09T09:55:04;19.15;35.29
72355;SHT30;60314;55.040;73.076;2022-09-09T09:57:38;19.12;36.46
72355;SHT30;60314;55.040;73.076;2022-09-09T10:00:14;19.09;36.35
72355;SHT30;60314;55.040;73.076;2022-09-09T10:02:51;19.07;35.99
72355;SHT30;60314;55.040;73.076;2022-09-09T10:05:29;19.04;36.91
72355;SHT30;60314;55.040;73.076;2022-09-09T10:08:16;19.07;37.55
72355;SHT30;60314;55.040;73.076;2022-09-09T10:16:31;19.08;36.17
72355;SHT30;60314;55.040;73.076;2022-09-09T10:19:16;19.07;36.37
72355;SHT30;60314;55.040;73.076;2022-09-09T10:24:51;19.14;37.24
72355;SHT30;60314;55.040;73.076;2022-09-09T10:30:16;19.29;34.65
72355;SHT30;60314;55.040;73.076;2022-09-09T10:38:45;19.35;35.32
72355;SHT30;60314;55.040;73.076;2022-09-09T10:49:57;19.32;37.78
72355;SHT30;60314;55.040;73.076;2022-09-09T10:55:29;19.20;36.96
72355;SHT30;60314;55.040;73.076;2022-09-09T10:58:02;19.18;39.09
72355;SHT30;60314;55.040;73.076;2022-09-09T11:00:44;19.16;37.95
72355;SHT30;60314;55.040;73.076;2022-09-09T11:03:28;19.28;37.20
72355;SHT30;60314;55.040;73.076;2022-09-09T11:06:18;19.45;36.07
72355;SHT30;60314;55.040;73.076;2022-09-09T11:08:45;19.53;36.37
72355;SHT30;60314;55.040;73.076;2022-09-09T11:11:25;19.60;36.59
72355;SHT30;60314;55.040;73.076;2022-09-09T11:14:12;19.69;36.25
72355;SHT30;60314;55.040;73.076;2022-09-09T11:16:58;19.74;35.28
72355;SHT30;60314;55.040;73.076;2022-09-09T11:19:41;19.70;35.12
72355;SHT30;60314;55.040;73.076;2022-09-09T11:22:21;19.55;34.30
72355;SHT30;60314;55.040;73.076;2022-09-09T11:39:23;18.81;34.30
72355;SHT30;60314;55.040;73.076;2022-09-09T11:44:33;18.74;35.55
72355;SHT30;60314;55.040;73.076;2022-09-09T11:47:25;18.77;35.89
72355;SHT30;60314;55.040;73.076;2022-09-09T11:50:10;18.78;37.93
72355;SHT30;60314;55.040;73.076;2022-09-09T11:55:44;18.77;37.22
72355;SHT30;60314;55.040;73.076;2022-09-09T12:00:46;18.64;36.81
72355;SHT30;60314;55.040;73.076;2022-09-09T12:03:39;18.53;38.86
72355;SHT30;60314;55.040;73.076;2022-09-09T12:06:20;18.41;36.93
72355;SHT30;60314;55.040;73.076;2022-09-09T12:11:33;18.32;37.07
72355;SHT30;60314;55.040;73.076;2022-09-09T12:14:00;18.30;37.79
72355;SHT30;60314;55.040;73.076;2022-09-09T12:16:36;18.23;37.66
72355;SHT30;60314;55.040;73.076;2022-09-09T12:21:38;18.20;40.61
72355;SHT30;60314;55.040;73.076;2022-09-09T12:24:37;18.23;40.39
72355;SHT30;60314;55.040;73.076;2022-09-09T12:27:26;18.23;38.96
72355;SHT30;60314;55.040;73.076;2022-09-09T12:30:02;18.26;38.29
72355;SHT30;60314;55.040;73.076;2022-09-09T12:32:29;18.22;39.90
72355;SHT30;60314;55.040;73.076;2022-09-09T12:35:02;18.22;39.41
72355;SHT30;60314;55.040;73.076;2022-09-09T12:37:42;18.18;39.96
72355;SHT30;60314;55.040;73.076;2022-09-09T12:40:25;18.13;39.59
72355;SHT30;60314;55.040;73.076;2022-09-09T12:42:52;18.09;39.31
72355;SHT30;60314;55.040;73.076;2022-09-09T12:45:21;18.07;39.88
72355;SHT30;60314;55.040;73.076;2022-09-09T12:48:00;18.03;40.46
72355;SHT30;60314;55.040;73.076;2022-09-09T12:50:31;17.99;40.35
72355;SHT30;60314;55.040;73.076;2022-09-09T12:53:12;17.92;40.48
72355;SHT30;60314;55.040;73.076;2022-09-09T12:58:29;17.76;43.15
72355;SHT30;60314;55.040;73.076;2022-09-09T13:01:00;17.66;41.00
72355;SHT30;60314;55.040;73.076;2022-09-09T13:03:43;17.61;40.44
72355;SHT30;60314;55.040;73.076;2022-09-09T13:06:16;17.51;40.85
72355;SHT30;60314;55.040;73.076;2022-09-09T13:08:52;17.39;40.69
72355;SHT30;60314;55.040;73.076;2022-09-09T13:11:23;17.31;40.66
72355;SHT30;60314;55.040;73.076;2022-09-09T13:13:54;17.24;42.08
72355;SHT30;60314;55.040;73.076;2022-09-09T13:16:28;17.11;41.65
72355;SHT30;60314;55.040;73.076;2022-09-09T13:19:14;16.93;41.93
72355;SHT30;60314;55.040;73.076;2022-09-09T13:21:42;16.81;42.67
72355;SHT30;60314;55.040;73.076;2022-09-09T13:24:33;16.66;42.36
72355;SHT30;60314;55.040;73.076;2022-09-09T13:27:03;16.60;42.31
72355;SHT30;60314;55.040;73.076;2022-09-09T13:29:35;16.53;42.83
72355;SHT30;60314;55.040;73.076;2022-09-09T13:32:16;16.42;43.14
72355;SHT30;60314;55.040;73.076;2022-09-09T13:34:58;16.35;43.34
72355;SHT30;60314;55.040;73.076;2022-09-09T13:37:33;16.25;44.41
72355;SHT30;60314;55.040;73.076;2022-09-09T13:40:05;16.16;44.54
72355;SHT30;60314;55.040;73.076;2022-09-09T13:42:37;16.09;44.65
72355;SHT30;60314;55.040;73.076;2022-09-09T13:45:18;15.98;45.23
72355;SHT30;60314;55.040;73.076;2022-09-09T13:47:46;15.83;46.22
72355;SHT30;60314;55.040;73.076;2022-09-09T13:50:26;15.70;50.48
72355;SHT30;60314;55.040;73.076;2022-09-09T13:52:57;15.55;48.33
72355;SHT30;60314;55.040;73.076;2022-09-09T13:55:26;15.47;51.53
72355;SHT30;60314;55.040;73.076;2022-09-09T13:58:00;15.36;50.51
72355;SHT30;60314;55.040;73.076;2022-09-09T14:00:33;15.18;52.79
72355;SHT30;60314;55.040;73.076;2022-09-09T14:03:00;14.99;50.80
72355;SHT30;60314;55.040;73.076;2022-09-09T14:05:31;14.86;50.94
72355;SHT30;60314;55.040;73.076;2022-09-09T14:07:58;14.73;49.69
72355;SHT30;60314;55.040;73.076;2022-09-09T14:10:31;14.62;55.84
72355;SHT30;60314;55.040;73.076;2022-09-09T14:13:03;14.46;54.86
72355;SHT30;60314;55.040;73.076;2022-09-09T14:15:34;14.34;57.45
72355;SHT30;60314;55.040;73.076;2022-09-09T14:18:01;14.27;59.35
72355;SHT30;60314;55.040;73.076;2022-09-09T14:20:38;14.14;61.74
72355;SHT30;60314;55.040;73.076;2022-09-09T14:23:11;13.97;55.37
72355;SHT30;60314;55.040;73.076;2022-09-09T14:25:40;13.87;58.88
72355;SHT30;60314;55.040;73.076;2022-09-09T14:28:11;13.69;56.49
72355;SHT30;60314;55.040;73.076;2022-09-09T14:30:42;13.34;56.91
72355;SHT30;60314;55.040;73.076;2022-09-09T14:33:12;13.15;56.15
72355;SHT30;60314;55.040;73.076;2022-09-09T14:35:59;13.09;58.90
72355;SHT30;60314;55.040;73.076;2022-09-09T14:38:29;13.01;57.77
72355;SHT30;60314;55.040;73.076;2022-09-09T14:40:55;12.89;61.88
72355;SHT30;60314;55.040;73.076;2022-09-09T14:43:22;12.70;57.74
72355;SHT30;60314;55.040;73.076;2022-09-09T14:45:48;12.63;58.16
72355;SHT30;60314;55.040;73.076;2022-09-09T14:48:17;12.63;58.00
72355;SHT30;60314;55.040;73.076;2022-09-09T14:50:44;12.58;60.44
72355;SHT30;60314;55.040;73.076;2022-09-09T14:53:10;12.53;61.91
72355;SHT30;60314;55.040;73.076;2022-09-09T14:55:37;12.46;58.05
72355;SHT30;60314;55.040;73.076;2022-09-09T14:58:04;12.30;59.79
72355;SHT30;60314;55.040;73.076;2022-09-09T15:00:32;12.23;58.97
72355;SHT30;60314;55.040;73.076;2022-09-09T15:03:00;12.19;60.75
72355;SHT30;60314;55.040;73.076;2022-09-09T15:05:27;12.13;59.06
72355;SHT30;60314;55.040;73.076;2022-09-09T15:07:54;12.08;61.31
72355;SHT30;60314;55.040;73.076;2022-09-09T15:10:26;11.93;62.70
72355;SHT30;60314;55.040;73.076;2022-09-09T15:12:55;11.86;63.97
72355;SHT30;60314;55.040;73.076;2022-09-09T15:15:33;11.81;63.43
72355;SHT30;60314;55.040;73.076;2022-09-09T15:18:00;11.74;63.65
72355;SHT30;60314;55.040;73.076;2022-09-09T15:20:27;11.58;62.77
72355;SHT30;60314;55.040;73.076;2022-09-09T15:22:53;11.42;64.39
72355;SHT30;60314;55.040;73.076;2022-09-09T15:25:23;11.32;62.77
72355;SHT30;60314;55.040;73.076;2022-09-09T15:27:50;11.21;64.02
72355;SHT30;60314;55.040;73.076;2022-09-09T15:30:16;10.99;63.21
72355;SHT30;60314;55.040;73.076;2022-09-09T15:32:43;10.83;64.65
72355;SHT30;60314;55.040;73.076;2022-09-09T15:35:09;10.79;64.61
72355;SHT30;60314;55.040;73.076;2022-09-09T15:37:35;10.67;64.39
72355;SHT30;60314;55.040;73.076;2022-09-09T15:40:02;10.56;65.93
72355;SHT30;60314;55.040;73.076;2022-09-09T15:42:29;10.44;66.92
72355;SHT30;60314;55.040;73.076;2022-09-09T15:45:01;10.42;66.98
72355;SHT30;60314;55.040;73.076;2022-09-09T15:47:27;10.39;67.23
72355;SHT30;60314;55.040;73.076;2022-09-09T15:49:54;10.44;67.07
72355;SHT30;60314;55.040;73.076;2022-09-09T15:52:20;10.35;67.48
72355;SHT30;60314;55.040;73.076;2022-09-09T15:54:47;10.16;67.57
72355;SHT30;60314;55.040;73.076;2022-09-09T15:57:13;10.05;67.08
72355;SHT30;60314;55.040;73.076;2022-09-09T15:59:40;9.93;68.39
72355;SHT30;60314;55.040;73.076;2022-09-09T16:02:06;9.83;67.91
72355;SHT30;60314;55.040;73.076;2022-09-09T16:04:33;9.83;67.35
72355;SHT30;60314;55.040;73.076;2022-09-09T16:07:02;9.85;67.88
72355;SHT30;60314;55.040;73.076;2022-09-09T16:09:34;9.84;67.08
72355;SHT30;60314;55.040;73.076;2022-09-09T16:12:07;9.84;66.63
72355;SHT30;60314;55.040;73.076;2022-09-09T16:14:45;9.85;65.53
72355;SHT30;60314;55.040;73.076;2022-09-09T16:17:13;9.78;67.60
72355;SHT30;60314;55.040;73.076;2022-09-09T16:19:41;9.67;67.61
72355;SHT30;60314;55.040;73.076;2022-09-09T16:22:07;9.65;67.70
72355;SHT30;60314;55.040;73.076;2022-09-09T16:24:35;9.54;68.93
72355;SHT30;60314;55.040;73.076;2022-09-09T16:27:06;9.44;68.05
72355;SHT30;60314;55.040;73.076;2022-09-09T16:29:38;9.43;67.75
72355;SHT30;60314;55.040;73.076;2022-09-09T16:32:05;9.37;67.56
72355;SHT30;60314;55.040;73.076;2022-09-09T16:34:31;9.24;68.77
72355;SHT30;60314;55.040;73.076;2022-09-09T16:37:01;9.30;68.18
72355;SHT30;60314;55.040;73.076;2022-09-09T16:39:33;9.37;66.18
72355;SHT30;60314;55.040;73.076;2022-09-09T16:42:00;9.29;66.56
72355;SHT30;60314;55.040;73.076;2022-09-09T16:44:26;9.20;67.44
72355;SHT30;60314;55.040;73.076;2022-09-09T16:46:58;9.11;69.21
72355;SHT30;60314;55.040;73.076;2022-09-09T16:49:34;8.95;68.85
72355;SHT30;60314;55.040;73.076;2022-09-09T16:52:01;8.83;68.98
72355;SHT30;60314;55.040;73.076;2022-09-09T16:54:28;8.69;69.81
72355;SHT30;60314;55.040;73.076;2022-09-09T16:56:55;8.71;68.91
72355;SHT30;60314;55.040;73.076;2022-09-09T16:59:22;8.71;69.74
72355;SHT30;60314;55.040;73.076;2022-09-09T17:01:50;8.61;70.38
72355;SHT30;60314;55.040;73.076;2022-09-09T17:04:29;8.57;70.38
72355;SHT30;60314;55.040;73.076;2022-09-09T17:06:58;8.67;71.44
72355;SHT30;60314;55.040;73.076;2022-09-09T17:09:26;8.61;71.73
72355;SHT30;60314;55.040;73.076;2022-09-09T17:11:59;8.50;72.36
72355;SHT30;60314;55.040;73.076;2022-09-09T17:14:34;8.38;72.57
72355;SHT30;60314;55.040;73.076;2022-09-09T17:17:00;8.38;70.61
72355;SHT30;60314;55.040;73.076;2022-09-09T17:19:27;8.41;71.44
72355;SHT30;60314;55.040;73.076;2022-09-09T17:21:54;8.38;71.27
72355;SHT30;60314;55.040;73.076;2022-09-09T17:24:23;8.41;70.85
72355;SHT30;60314;55.040;73.076;2022-09-09T17:26:53;8.41;70.29
72355;SHT30;60314;55.040;73.076;2022-09-09T17:29:25;8.44;70.35
72355;SHT30;60314;55.040;73.076;2022-09-09T17:31:57;8.44;70.49
72355;SHT30;60314;55.040;73.076;2022-09-09T17:34:34;8.47;71.38
72355;SHT30;60314;55.040;73.076;2022-09-09T17:37:01;8.48;71.91
72355;SHT30;60314;55.040;73.076;2022-09-09T17:39:27;8.47;71.62
72355;SHT30;60314;55.040;73.076;2022-09-09T17:41:55;8.44;72.55
72355;SHT30;60314;55.040;73.076;2022-09-09T17:44:22;8.34;71.35